Liberty Hill, TX (78642)

10:42 PM CDT on May 25, 2015 (GMT -0500)
Sundance Estates | | Change Station
CLOSE
Current Station
Personal Weather Station
Location: Liberty Hill, TX
Elevation: 1096 ft
Nearby Weather Stations

Elev 1096 ft 30.68 °N, 97.92 °W | Updated 5 minutes ago

Mostly Cloudy
Mostly Cloudy
64.8 °F
Feels Like 64.8 °F
N
0.0
Wind Variable Wind from WNW

Today
High -- | Low -- °F
--% Chance of Precip.
Yesterday
High -- | Low -- °F
Precip. -- in
6:31 AM 8:25 PM
First Quarter, 54% visible
Pressure 29.90 in
Visibility 0.2 miles
Clouds Overcast 200 ft
Dew Point 64 °F
Humidity 99%
Rainfall 3.31 in
Snow Depth Not available.
UV 0 out of 12
Pollen .70 out of 12
Air Quality Not available.
Flu Activity Sporadic
METAR KRYW 260335Z AUTO 00000KT 1/4SM FG OVC002 20/19 A2990 RMK AO2 LTG DSNT E AND SE T01980190

More Conditions Fewer Conditions

Pressure 29.90 in
Visibility 0.2 miles
Clouds Overcast 200 ft
Dew Point 64 °F
Humidity 99%
Rainfall 3.31 in
Snow Depth Not available.
UV 0 out of 12
Pollen .70 out of 12
Air Quality Not available.
Flu Activity Sporadic
METAR KRYW 260335Z AUTO 00000KT 1/4SM FG OVC002 20/19 A2990 RMK AO2 LTG DSNT E AND SE T01980190

More Conditions Fewer Conditions

10-Day Weather Forecast

Almanac

Astronomy

May. 25, 2015 Rise Set
Actual Time
Civil Twilight
Nautical Twilight
Astronomical Twilight
Moon
Length of Visible Light
Length of Day
Tomorrow will be .
, % of the Moon is Illuminated

Today's Extremes

State Highs State Lows

Community

WunderPhotos

Upload Photos

1,824,269 photos uploaded!

WunderBlogs® & News

Nearby

Air Quality

  Air Quality AQ Index Pollutant
Not available.

Snow Depth

Station Depth Elevation

Earthquake Activity

City Distance Mag. Time & Date
Minimum magnitude displayed is 2.5.

Coastal Water Temperatures

Place Temperature

Stations

Nearby Weather Stations

Station Location Temp. Windchill Dew Point Humidity Wind Precip. Elev Updated Type